Time;durP1;ratioP1;P1;durP2;ratioP2;P2;SDS_P1;SDS_P2;PMS_P1;PMS_P2;Temp;Humidity;BMP_temperature;BMP_pressure;BME280_temperature;BME280_humidity;BME280_pressure;Samples;Min_cycle;Max_cycle;Signal;HPM_P1;HPM_P2
2023/07/22 00:01:16;;;;;;;5.32;4.13;;;16.00;99.90;;;;;;5034929;28;20170;-73
2023/07/22 00:03:43;;;;;;;5.35;4.03;;;16.00;99.90;;;;;;5034192;28;20181;-71
2023/07/22 00:06:14;;;;;;;5.72;4.18;;;16.00;99.90;;;;;;5034000;28;20174;-73
2023/07/22 00:08:42;;;;;;;5.13;4.63;;;16.00;99.90;;;;;;5033574;28;20170;-72
2023/07/22 00:11:10;;;;;;;5.93;4.53;;;16.00;99.90;;;;;;5033381;28;20193;-73
2023/07/22 00:13:38;;;;;;;7.85;4.28;;;16.00;99.90;;;;;;5033546;28;20178;-72
2023/07/22 00:16:07;;;;;;;5.03;4.28;;;16.00;99.90;;;;;;5030655;28;20190;-69
2023/07/22 00:18:33;;;;;;;5.88;4.25;;;16.00;99.90;;;;;;5025578;28;20174;-72
2023/07/22 00:21:03;;;;;;;4.82;3.70;;;16.00;99.90;;;;;;5026203;28;20252;-70
2023/07/22 00:23:31;;;;;;;5.22;4.50;;;15.90;99.90;;;;;;5034761;28;20195;-72
2023/07/22 00:25:59;;;;;;;5.97;4.40;;;15.90;99.90;;;;;;5022159;28;20178;-67
2023/07/22 00:28:25;;;;;;;5.10;4.20;;;15.90;99.90;;;;;;5031692;28;20216;-69
2023/07/22 00:30:53;;;;;;;5.28;4.28;;;15.90;99.90;;;;;;5033792;28;20264;-73
2023/07/22 00:33:19;;;;;;;5.75;4.07;;;15.80;99.90;;;;;;5036368;28;20181;-71
2023/07/22 00:35:50;;;;;;;5.78;4.50;;;15.80;99.90;;;;;;5033381;28;20183;-70
2023/07/22 00:38:15;;;;;;;5.18;3.88;;;15.80;99.90;;;;;;5029816;28;20171;-70
2023/07/22 00:40:43;;;;;;;4.90;3.88;;;15.80;99.90;;;;;;5049114;28;20181;-72
2023/07/22 00:43:09;;;;;;;4.90;4.10;;;15.80;99.90;;;;;;5033044;28;20217;-73
2023/07/22 00:45:35;;;;;;;5.13;4.10;;;15.80;99.90;;;;;;5028534;28;20202;-73
2023/07/22 00:48:07;;;;;;;6.25;4.32;;;15.80;99.90;;;;;;5035649;28;20182;-73
2023/07/22 00:50:33;;;;;;;5.57;4.18;;;15.80;99.90;;;;;;5036846;28;20174;-70
2023/07/22 00:53:04;;;;;;;4.60;3.80;;;15.80;99.90;;;;;;5036854;28;20349;-71
2023/07/22 00:55:32;;;;;;;5.57;4.20;;;15.70;99.90;;;;;;5018087;28;20421;-70
2023/07/22 00:57:57;;;;;;;4.38;3.88;;;15.70;99.90;;;;;;5036454;28;20196;-71
2023/07/22 01:00:23;;;;;;;6.53;4.18;;;15.70;99.90;;;;;;5036427;28;20233;-72
2023/07/22 01:02:51;;;;;;;4.60;3.92;;;15.70;99.90;;;;;;5036747;28;20174;-73
2023/07/22 01:05:19;;;;;;;5.03;3.75;;;15.70;99.90;;;;;;5036087;28;20202;-71
2023/07/22 01:07:45;;;;;;;5.95;4.00;;;15.60;99.90;;;;;;5036337;28;20239;-71
2023/07/22 01:10:14;;;;;;;5.18;4.10;;;15.60;99.90;;;;;;5036608;28;20494;-73
2023/07/22 01:12:40;;;;;;;5.20;4.28;;;15.60;99.90;;;;;;5036702;28;20178;-71
2023/07/22 01:15:07;;;;;;;4.95;3.97;;;15.60;99.90;;;;;;5036581;28;20173;-72
2023/07/22 01:17:35;;;;;;;5.63;3.85;;;15.50;99.90;;;;;;5016449;28;20264;-72
2023/07/22 01:20:03;;;;;;;4.47;3.53;;;15.50;99.90;;;;;;5040080;28;20180;-72
2023/07/22 01:22:33;;;;;;;4.57;3.97;;;15.50;99.90;;;;;;5030612;28;20182;-73
2023/07/22 01:25:01;;;;;;;4.38;3.65;;;15.40;99.90;;;;;;5035743;28;20198;-72
2023/07/22 01:27:29;;;;;;;4.95;3.88;;;15.40;99.90;;;;;;5035793;28;20193;-73
2023/07/22 01:29:55;;;;;;;5.15;4.07;;;15.40;99.90;;;;;;5034441;28;20272;-73
2023/07/22 01:32:20;;;;;;;4.90;4.18;;;15.40;99.90;;;;;;5032579;28;20282;-72
2023/07/22 01:34:46;;;;;;;4.28;3.53;;;15.40;99.90;;;;;;5035683;28;20190;-68
2023/07/22 01:37:16;;;;;;;4.00;3.60;;;15.30;99.90;;;;;;5035189;28;20205;-70
2023/07/22 01:39:43;;;;;;;5.72;3.58;;;15.30;99.90;;;;;;5029004;28;20178;-67
2023/07/22 01:42:08;;;;;;;4.75;4.07;;;15.30;99.90;;;;;;5035786;28;20181;-72
2023/07/22 01:44:36;;;;;;;4.78;4.03;;;15.30;99.90;;;;;;5019773;28;20183;-67
2023/07/22 01:47:03;;;;;;;3.97;3.58;;;15.20;99.90;;;;;;5035413;28;20178;-75
2023/07/22 01:49:31;;;;;;;5.22;4.18;;;15.20;99.90;;;;;;5048649;28;20249;-73
2023/07/22 01:51:56;;;;;;;5.22;3.80;;;15.20;99.90;;;;;;5035491;28;20182;-73
2023/07/22 01:54:22;;;;;;;4.10;3.70;;;15.20;99.90;;;;;;5029586;28;20208;-71
2023/07/22 01:56:52;;;;;;;5.50;4.00;;;15.20;99.90;;;;;;5022488;28;20195;-70
2023/07/22 01:59:20;;;;;;;4.78;3.47;;;15.20;99.90;;;;;;5035496;28;20170;-72
2023/07/22 02:01:48;;;;;;;4.50;3.97;;;15.20;99.90;;;;;;5035461;28;20209;-71
2023/07/22 02:04:13;;;;;;;4.72;4.13;;;15.20;99.90;;;;;;5035177;28;20186;-70
2023/07/22 02:06:41;;;;;;;4.80;4.18;;;15.10;99.90;;;;;;5026256;28;20190;-72
2023/07/22 02:09:08;;;;;;;4.63;3.88;;;15.10;99.90;;;;;;5015610;28;20170;-72
2023/07/22 02:11:35;;;;;;;4.82;3.85;;;15.10;99.90;;;;;;5027322;28;20185;-73
2023/07/22 02:14:01;;;;;;;5.55;4.03;;;15.10;99.90;;;;;;5033615;28;20345;-72
2023/07/22 02:16:29;;;;;;;5.10;4.00;;;15.10;99.90;;;;;;5019745;28;20285;-72
2023/07/22 02:18:54;;;;;;;4.78;4.13;;;15.10;99.90;;;;;;5031354;28;20335;-71
2023/07/22 02:21:22;;;;;;;4.85;4.15;;;15.10;99.90;;;;;;5035178;28;20189;-73
2023/07/22 02:23:48;;;;;;;4.03;3.58;;;15.00;99.90;;;;;;5034485;28;20170;-71
2023/07/22 02:26:15;;;;;;;4.03;3.63;;;15.10;99.90;;;;;;5034896;28;20206;-73
2023/07/22 02:28:40;;;;;;;4.40;3.53;;;15.10;99.90;;;;;;5038374;28;20256;-69
2023/07/22 02:31:08;;;;;;;4.28;3.85;;;15.10;99.90;;;;;;5037688;28;20221;-70
2023/07/22 02:33:34;;;;;;;4.13;3.72;;;15.00;99.90;;;;;;5036968;28;20220;-72
2023/07/22 02:36:02;;;;;;;5.22;4.10;;;15.00;99.90;;;;;;5048160;28;20225;-72
2023/07/22 02:38:30;;;;;;;5.57;4.03;;;15.10;99.90;;;;;;5035259;28;20201;-72
2023/07/22 02:41:06;;;;;;;4.75;3.67;;;15.10;99.90;;;;;;5034669;28;20185;-69
2023/07/22 02:43:32;;;;;;;4.90;3.88;;;15.10;99.90;;;;;;5035062;28;20200;-71
2023/07/22 02:46:02;;;;;;;4.88;3.67;;;15.10;99.90;;;;;;5033842;28;20204;-72
2023/07/22 02:48:27;;;;;;;4.28;3.80;;;15.20;99.90;;;;;;5034548;28;20186;-71
2023/07/22 02:50:53;;;;;;;4.28;3.88;;;15.20;99.90;;;;;;5034817;28;20285;-72
2023/07/22 02:53:21;;;;;;;4.90;4.05;;;15.20;99.90;;;;;;5034859;28;20182;-71
2023/07/22 02:55:48;;;;;;;4.90;3.55;;;15.20;99.90;;;;;;5028874;28;20229;-73
2023/07/22 02:58:13;;;;;;;4.65;3.90;;;15.20;99.90;;;;;;5015254;28;20201;-74
2023/07/22 03:00:43;;;;;;;5.07;3.97;;;15.20;99.90;;;;;;5034393;28;20265;-73
2023/07/22 03:03:10;;;;;;;5.85;3.90;;;15.30;99.90;;;;;;5032812;28;20178;-72
2023/07/22 03:05:36;;;;;;;4.97;4.03;;;15.20;99.90;;;;;;5032127;28;20201;-73
2023/07/22 03:08:02;;;;;;;5.68;4.30;;;15.20;99.90;;;;;;5034217;28;20182;-72
2023/07/22 03:10:29;;;;;;;4.90;3.90;;;15.10;99.90;;;;;;5033830;28;20197;-70
2023/07/22 03:12:55;;;;;;;4.88;4.28;;;15.10;99.90;;;;;;5028566;28;20170;-73
2023/07/22 03:15:28;;;;;;;4.75;3.67;;;15.10;99.90;;;;;;5017284;28;20182;-73
2023/07/22 03:17:55;;;;;;;5.00;3.72;;;15.00;99.90;;;;;;5042506;28;20247;-73
2023/07/22 03:20:22;;;;;;;4.95;3.67;;;15.00;99.90;;;;;;5031365;28;20205;-73
2023/07/22 03:22:50;;;;;;;4.22;3.83;;;15.00;99.90;;;;;;5033326;28;20297;-72
2023/07/22 03:25:20;;;;;;;4.88;3.70;;;15.00;99.90;;;;;;5028818;28;20174;-72
2023/07/22 03:27:48;;;;;;;5.68;4.20;;;15.00;99.90;;;;;;5030789;28;20186;-73
2023/07/22 03:30:15;;;;;;;4.30;3.53;;;14.90;99.90;;;;;;5029393;28;20343;-71
2023/07/22 03:32:44;;;;;;;4.80;4.00;;;14.90;99.90;;;;;;5034245;28;20296;-74
2023/07/22 03:35:12;;;;;;;4.18;3.63;;;14.90;99.90;;;;;;5034371;28;20219;-74
2023/07/22 03:37:39;;;;;;;4.63;3.70;;;14.90;99.90;;;;;;5048667;28;20295;-70
2023/07/22 03:40:14;;;;;;;4.90;4.00;;;14.90;99.90;;;;;;5035749;28;20174;-73
2023/07/22 03:42:40;;;;;;;4.80;3.75;;;14.90;99.90;;;;;;5030610;28;20213;-73
2023/07/22 03:45:10;;;;;;;4.70;3.72;;;14.90;99.90;;;;;;5031103;28;20261;-73
2023/07/22 03:47:35;;;;;;;4.70;3.90;;;14.90;99.90;;;;;;5032380;28;20183;-71
2023/07/22 03:50:02;;;;;;;4.35;3.63;;;14.90;99.90;;;;;;5029697;28;20201;-73
2023/07/22 03:52:27;;;;;;;5.40;4.07;;;14.90;99.90;;;;;;5030569;28;20207;-73
2023/07/22 03:54:53;;;;;;;4.75;3.88;;;14.90;99.90;;;;;;5036755;28;20178;-73
2023/07/22 03:57:25;;;;;;;5.38;3.70;;;15.00;99.90;;;;;;5038307;28;20197;-65
2023/07/22 03:59:51;;;;;;;4.72;3.92;;;15.00;99.90;;;;;;5037728;28;20178;-65
2023/07/22 04:02:16;;;;;;;5.32;4.28;;;15.00;99.90;;;;;;5039936;28;20194;-65
2023/07/22 04:04:42;;;;;;;4.70;3.78;;;15.00;99.90;;;;;;5033938;28;20256;-65
2023/07/22 04:07:08;;;;;;;5.03;4.13;;;15.00;99.90;;;;;;5024391;28;20182;-67
2023/07/22 04:09:35;;;;;;;4.85;3.90;;;15.00;99.90;;;;;;5027548;28;20256;-64
2023/07/22 04:12:01;;;;;;;4.25;3.83;;;15.10;99.90;;;;;;5039062;28;20205;-64
2023/07/22 04:14:31;;;;;;;4.68;3.85;;;15.10;99.90;;;;;;5055214;28;20185;-66
2023/07/22 04:16:57;;;;;;;5.20;4.10;;;15.10;99.90;;;;;;5054598;28;20208;-67
2023/07/22 04:19:25;;;;;;;4.82;4.00;;;15.10;99.90;;;;;;5038860;28;20170;-65
2023/07/22 04:21:50;;;;;;;4.38;3.53;;;15.10;99.90;;;;;;5038660;28;20189;-66
2023/07/22 04:24:16;;;;;;;4.63;4.07;;;15.20;99.90;;;;;;5038252;28;20170;-65
2023/07/22 04:26:43;;;;;;;4.38;3.97;;;15.20;99.90;;;;;;5037285;28;20193;-65
2023/07/22 04:29:09;;;;;;;4.80;3.80;;;15.20;99.90;;;;;;5037615;28;20178;-65
2023/07/22 04:31:35;;;;;;;5.95;3.80;;;15.20;99.90;;;;;;5037545;28;20170;-65
2023/07/22 04:34:00;;;;;;;5.43;4.07;;;15.30;99.90;;;;;;5037604;28;20188;-66
2023/07/22 04:36:26;;;;;;;4.70;3.70;;;15.30;99.90;;;;;;5037474;28;20214;-66
2023/07/22 04:38:51;;;;;;;5.45;4.10;;;15.30;99.90;;;;;;5037500;28;20177;-65
2023/07/22 04:41:18;;;;;;;5.13;3.92;;;15.40;99.90;;;;;;5037089;28;20201;-66
2023/07/22 04:43:46;;;;;;;5.20;3.90;;;15.30;99.90;;;;;;5036612;28;20169;-65
2023/07/22 04:46:11;;;;;;;5.60;4.00;;;15.40;99.90;;;;;;5037088;28;20182;-65
2023/07/22 04:48:39;;;;;;;5.38;3.97;;;15.40;99.90;;;;;;5037088;28;20197;-66
2023/07/22 04:51:05;;;;;;;4.55;4.00;;;15.40;99.90;;;;;;5037161;28;20276;-65
2023/07/22 04:53:30;;;;;;;4.72;4.22;;;15.40;99.90;;;;;;5036939;28;20209;-65
2023/07/22 04:55:59;;;;;;;4.18;3.72;;;15.40;99.90;;;;;;5037037;28;20228;-66
2023/07/22 04:58:25;;;;;;;4.80;3.85;;;15.40;99.90;;;;;;5037097;28;20170;-65
2023/07/22 05:00:53;;;;;;;5.75;4.05;;;15.50;99.90;;;;;;5036998;28;20208;-66
2023/07/22 05:03:18;;;;;;;4.78;4.25;;;15.40;99.90;;;;;;5036743;28;20231;-65
2023/07/22 05:05:44;;;;;;;5.03;4.25;;;15.50;99.90;;;;;;5036914;28;20178;-66
2023/07/22 05:08:10;;;;;;;5.72;4.40;;;15.50;99.90;;;;;;5038872;28;20169;-65
2023/07/22 05:10:37;;;;;;;4.45;3.80;;;15.50;99.90;;;;;;5056448;28;20192;-68
2023/07/22 05:13:03;;;;;;;5.07;3.97;;;15.50;99.90;;;;;;5056520;28;20196;-66
2023/07/22 05:15:29;;;;;;;5.90;4.07;;;15.50;99.90;;;;;;5046607;28;20182;-66
2023/07/22 05:17:55;;;;;;;4.88;3.80;;;15.60;99.90;;;;;;5036130;28;20202;-66
2023/07/22 05:20:20;;;;;;;4.63;3.65;;;15.60;99.90;;;;;;5036540;28;20201;-66
2023/07/22 05:22:48;;;;;;;5.78;4.00;;;15.60;99.90;;;;;;5036489;28;20185;-66
2023/07/22 05:25:13;;;;;;;4.78;4.07;;;15.60;99.90;;;;;;5025227;28;20202;-66
2023/07/22 05:27:40;;;;;;;4.60;3.83;;;15.70;99.90;;;;;;5016888;28;20206;-65
2023/07/22 05:30:06;;;;;;;4.53;3.60;;;15.70;99.90;;;;;;5048050;28;20273;-66
2023/07/22 05:32:34;;;;;;;4.82;4.07;;;15.70;99.90;;;;;;5036432;28;20202;-66
2023/07/22 05:35:01;;;;;;;4.63;3.90;;;15.80;99.90;;;;;;5035935;28;20272;-66
2023/07/22 05:37:27;;;;;;;5.18;4.03;;;15.80;99.90;;;;;;5036316;28;20278;-66
2023/07/22 05:39:52;;;;;;;5.78;4.28;;;15.90;99.90;;;;;;5036171;28;20520;-66
2023/07/22 05:42:20;;;;;;;4.57;3.90;;;15.90;99.90;;;;;;5035974;28;20178;-65
2023/07/22 05:44:46;;;;;;;4.63;4.13;;;16.00;99.90;;;;;;5045463;28;20170;-66
2023/07/22 05:47:12;;;;;;;5.22;4.03;;;16.00;99.90;;;;;;5053454;28;20166;-66
2023/07/22 05:49:37;;;;;;;4.28;3.70;;;16.10;99.90;;;;;;5035981;28;20212;-66
2023/07/22 05:52:03;;;;;;;4.80;3.75;;;16.10;99.90;;;;;;5036091;28;20257;-66
2023/07/22 05:54:29;;;;;;;5.13;4.28;;;16.20;99.90;;;;;;5034558;28;20180;-65
2023/07/22 05:56:54;;;;;;;4.25;3.65;;;16.20;99.90;;;;;;5035304;28;20193;-66
2023/07/22 05:59:22;;;;;;;6.35;4.28;;;16.20;99.90;;;;;;5036559;28;20272;-65
2023/07/22 06:01:48;;;;;;;5.50;4.40;;;16.30;99.90;;;;;;5032177;28;20181;-65
2023/07/22 06:04:13;;;;;;;5.15;4.45;;;16.40;99.90;;;;;;5024748;28;20177;-65
2023/07/22 06:06:41;;;;;;;5.03;4.20;;;16.40;99.90;;;;;;5051175;28;20189;-64
2023/07/22 06:09:07;;;;;;;5.72;4.55;;;16.50;99.90;;;;;;5046761;28;20185;-65
2023/07/22 06:11:32;;;;;;;5.22;4.15;;;16.50;99.90;;;;;;5034971;28;20209;-64
2023/07/22 06:14:00;;;;;;;5.95;4.43;;;16.60;99.90;;;;;;5035085;28;20221;-65
2023/07/22 06:16:26;;;;;;;4.63;3.75;;;16.60;99.90;;;;;;5031300;28;20233;-65
2023/07/22 06:18:51;;;;;;;4.80;4.00;;;16.70;99.90;;;;;;5021416;28;20206;-65
2023/07/22 06:21:17;;;;;;;4.63;4.00;;;16.70;99.90;;;;;;5040383;28;20189;-66
2023/07/22 06:23:45;;;;;;;4.35;3.80;;;16.80;99.90;;;;;;5027663;28;20211;-65
2023/07/22 06:26:10;;;;;;;4.75;4.20;;;16.90;99.90;;;;;;5034677;28;20243;-65
2023/07/22 06:28:36;;;;;;;5.78;4.38;;;16.90;99.90;;;;;;5034966;28;20189;-66
2023/07/22 06:31:02;;;;;;;5.93;4.50;;;17.00;99.90;;;;;;5031345;28;20207;-65
2023/07/22 06:33:27;;;;;;;5.18;4.18;;;17.10;99.90;;;;;;5019665;28;20196;-65
2023/07/22 06:35:57;;;;;;;4.57;4.03;;;17.10;99.90;;;;;;5032337;28;20232;-65
2023/07/22 06:38:23;;;;;;;4.57;4.03;;;17.20;99.90;;;;;;5025435;28;20186;-66
2023/07/22 06:40:51;;;;;;;8.95;4.60;;;17.30;99.90;;;;;;5020223;28;20178;-66
2023/07/22 06:43:17;;;;;;;6.57;3.95;;;17.30;99.90;;;;;;5029969;28;20174;-65
2023/07/22 06:45:47;;;;;;;5.03;4.38;;;17.40;99.90;;;;;;5034269;28;20236;-65
2023/07/22 06:48:15;;;;;;;4.10;3.70;;;17.50;99.90;;;;;;5086028;22;20217;-65
2023/07/22 06:50:47;;;;;;;4.47;4.05;;;17.60;99.90;;;;;;5074641;28;20215;-65
2023/07/22 06:53:14;;;;;;;6.57;4.40;;;17.70;99.90;;;;;;5074749;28;20176;-65
2023/07/22 06:55:47;;;;;;;5.35;4.40;;;17.70;99.90;;;;;;5074542;28;20187;-66
2023/07/22 06:58:13;;;;;;;5.85;4.07;;;17.80;99.90;;;;;;5074873;28;20200;-65
2023/07/22 07:00:39;;;;;;;4.85;4.35;;;17.90;99.90;;;;;;5074866;28;20187;-66
2023/07/22 07:03:04;;;;;;;5.95;4.88;;;17.90;99.90;;;;;;5074478;28;20169;-66
2023/07/22 07:05:30;;;;;;;4.70;3.80;;;18.00;99.90;;;;;;5074206;28;20258;-66
2023/07/22 07:08:00;;;;;;;5.93;4.35;;;18.00;99.90;;;;;;5074356;28;20184;-65
2023/07/22 07:10:26;;;;;;;5.28;3.70;;;18.10;99.90;;;;;;5062974;28;20201;-65
2023/07/22 07:12:51;;;;;;;4.65;3.70;;;18.20;99.90;;;;;;5054491;28;20179;-66
2023/07/22 07:15:20;;;;;;;9.40;6.53;;;18.20;99.90;;;;;;5054200;28;20185;-66
2023/07/22 07:17:48;;;;;;;5.20;4.22;;;18.30;99.90;;;;;;5054496;28;20227;-66
2023/07/22 07:20:16;;;;;;;5.10;4.57;;;18.40;99.90;;;;;;5059617;28;20175;-66
2023/07/22 07:22:42;;;;;;;5.32;4.32;;;18.50;99.90;;;;;;5073648;28;20200;-66
2023/07/22 07:25:11;;;;;;;5.55;4.10;;;18.60;99.90;;;;;;5074219;28;20176;-65
2023/07/22 07:27:37;;;;;;;5.13;4.15;;;18.70;99.90;;;;;;5072916;28;20173;-66
2023/07/22 07:30:09;;;;;;;4.63;4.00;;;18.80;99.90;;;;;;5073501;28;20291;-66
2023/07/22 07:32:35;;;;;;;4.22;3.60;;;18.90;99.90;;;;;;5071309;28;20312;-66
2023/07/22 07:35:00;;;;;;;5.45;3.55;;;19.00;99.90;;;;;;5074044;28;20248;-66
2023/07/22 07:37:26;;;;;;;4.53;3.88;;;19.20;99.90;;;;;;5071097;28;20302;-66
2023/07/22 07:39:52;;;;;;;5.75;4.00;;;19.30;99.90;;;;;;5067653;28;20203;-66
2023/07/22 07:42:20;;;;;;;4.18;3.78;;;19.30;99.90;;;;;;5066783;28;20342;-66
2023/07/22 07:44:46;;;;;;;4.05;3.60;;;19.40;99.90;;;;;;5053792;28;20174;-66
2023/07/22 07:47:11;;;;;;;4.35;3.78;;;19.50;99.90;;;;;;5054103;28;20183;-67
2023/07/22 07:49:37;;;;;;;4.60;3.80;;;19.60;99.90;;;;;;5053733;28;20216;-66
2023/07/22 07:52:03;;;;;;;4.00;3.50;;;19.60;99.90;;;;;;5070636;28;20263;-67
2023/07/22 07:54:29;;;;;;;4.13;3.72;;;19.70;99.90;;;;;;5073987;28;20179;-66
2023/07/22 07:56:54;;;;;;;5.60;3.78;;;19.80;99.90;;;;;;5071618;28;20200;-66
2023/07/22 07:59:25;;;;;;;4.40;3.83;;;19.80;99.90;;;;;;5073496;28;20195;-67
2023/07/22 08:01:53;;;;;;;4.32;3.92;;;19.90;99.90;;;;;;5073738;28;20203;-66
2023/07/22 08:04:20;;;;;;;5.07;3.90;;;20.00;99.90;;;;;;5073149;28;20176;-66
2023/07/22 08:06:51;;;;;;;5.22;3.67;;;20.00;99.90;;;;;;5069807;28;20177;-67
2023/07/22 08:09:19;;;;;;;5.40;4.47;;;20.10;99.90;;;;;;5053991;28;20170;-67
2023/07/22 08:11:47;;;;;;;6.07;4.88;;;20.10;99.90;;;;;;5067708;28;20165;-66
2023/07/22 08:14:14;;;;;;;4.55;3.72;;;20.30;99.90;;;;;;5066642;28;20224;-66
2023/07/22 08:16:40;;;;;;;4.40;3.80;;;20.30;99.90;;;;;;5071799;28;20193;-66
2023/07/22 08:19:08;;;;;;;5.97;3.90;;;20.40;99.90;;;;;;5073795;28;20165;-66
2023/07/22 08:21:34;;;;;;;4.13;3.72;;;20.50;99.90;;;;;;5073537;28;20271;-66
2023/07/22 08:23:59;;;;;;;4.80;3.65;;;20.60;99.90;;;;;;5073618;28;20173;-67
2023/07/22 08:26:28;;;;;;;4.13;3.72;;;20.70;99.90;;;;;;5067194;28;20190;-67
2023/07/22 08:28:55;;;;;;;4.38;3.97;;;20.80;99.90;;;;;;5071443;28;20204;-66
2023/07/22 08:31:21;;;;;;;4.00;3.60;;;20.90;99.90;;;;;;5072698;28;20185;-67
2023/07/22 08:33:47;;;;;;;4.88;3.85;;;21.10;99.90;;;;;;5073222;28;20197;-67
2023/07/22 08:36:12;;;;;;;3.83;3.42;;;21.20;99.90;;;;;;5073021;28;20249;-67
2023/07/22 08:38:38;;;;;;;4.40;3.67;;;21.20;99.90;;;;;;5070597;28;20279;-67
2023/07/22 08:41:04;;;;;;;3.80;3.50;;;21.30;99.90;;;;;;5070003;28;20201;-67
2023/07/22 08:43:30;;;;;;;4.20;3.60;;;21.40;99.90;;;;;;5076638;28;20187;-66
2023/07/22 08:46:01;;;;;;;4.03;3.35;;;21.50;99.90;;;;;;5075043;28;20181;-67
2023/07/22 08:48:36;;;;;;;3.95;3.55;;;21.60;99.90;;;;;;5069977;28;20193;-67
2023/07/22 08:51:13;;;;;;;3.92;3.53;;;21.70;99.90;;;;;;5073504;28;20183;-67
2023/07/22 08:53:39;;;;;;;4.03;3.60;;;21.80;99.90;;;;;;5076674;28;20188;-68
2023/07/22 08:56:07;;;;;;;4.00;3.30;;;21.90;99.90;;;;;;5074310;28;20178;-66
2023/07/22 08:58:36;;;;;;;3.80;3.35;;;22.00;99.90;;;;;;5076470;28;20176;-66
2023/07/22 09:01:02;;;;;;;4.75;3.67;;;22.10;99.90;;;;;;5076283;28;20230;-68
2023/07/22 09:03:28;;;;;;;3.92;3.13;;;22.30;99.90;;;;;;5070000;28;20180;-66
2023/07/22 09:05:55;;;;;;;9.15;7.70;;;22.40;99.90;;;;;;5071183;28;20223;-67
2023/07/22 09:08:23;;;;;;;5.32;4.43;;;22.50;99.90;;;;;;5076271;28;20180;-67
2023/07/22 09:10:48;;;;;;;4.15;3.55;;;22.60;99.90;;;;;;5065232;28;20200;-66
2023/07/22 09:13:15;;;;;;;4.10;3.03;;;22.70;99.90;;;;;;5076731;28;20176;-67
2023/07/22 09:15:41;;;;;;;3.50;3.20;;;22.70;99.90;;;;;;5076153;28;20222;-65
2023/07/22 09:18:07;;;;;;;3.70;2.92;;;22.70;99.90;;;;;;5076197;28;20215;-67
2023/07/22 09:20:34;;;;;;;2.80;2.50;;;22.80;99.90;;;;;;5076539;28;20173;-67
2023/07/22 09:23:03;;;;;;;2.97;2.50;;;22.80;99.90;;;;;;5073170;28;20205;-67
2023/07/22 09:25:28;;;;;;;3.17;2.85;;;22.90;99.90;;;;;;5056246;28;20201;-66
2023/07/22 09:28:03;;;;;;;2.30;2.10;;;22.90;99.90;;;;;;5074745;28;20181;-66
2023/07/22 09:30:38;;;;;;;2.58;2.38;;;23.00;99.90;;;;;;5075869;28;20180;-66
2023/07/22 09:33:07;;;;;;;2.80;2.38;;;23.00;99.90;;;;;;5075348;28;20172;-66
2023/07/22 09:35:46;;;;;;;2.58;2.38;;;23.10;99.90;;;;;;5075379;28;20180;-66
2023/07/22 09:38:12;;;;;;;2.75;2.40;;;23.20;99.90;;;;;;5075430;28;20204;-67
2023/07/22 09:40:42;;;;;;;2.67;2.40;;;23.20;99.90;;;;;;5066029;28;20174;-67
2023/07/22 09:43:12;;;;;;;2.72;2.53;;;23.30;99.90;;;;;;5076105;28;20226;-65
2023/07/22 09:45:37;;;;;;;2.85;2.55;;;23.30;99.90;;;;;;5074446;28;20168;-68
2023/07/22 09:48:08;;;;;;;2.75;2.42;;;23.40;99.90;;;;;;5075164;28;20282;-67
2023/07/22 09:50:38;;;;;;;3.47;2.60;;;23.40;99.90;;;;;;5073454;28;20196;-66
2023/07/22 09:53:04;;;;;;;2.97;2.33;;;23.50;99.90;;;;;;5075875;28;20173;-66
2023/07/22 09:55:32;;;;;;;2.30;2.10;;;23.60;99.90;;;;;;5076047;28;20173;-66
2023/07/22 09:58:02;;;;;;;2.25;2.05;;;23.70;99.90;;;;;;5073392;28;20201;-66
2023/07/22 10:00:33;;;;;;;3.40;2.40;;;23.80;99.90;;;;;;5071121;28;20176;-67
2023/07/22 10:03:00;;;;;;;3.15;2.05;;;23.90;99.90;;;;;;5060478;28;20205;-67
2023/07/22 10:05:29;;;;;;;2.40;2.10;;;23.90;99.90;;;;;;5072689;28;20256;-67
2023/07/22 10:07:57;;;;;;;2.80;2.25;;;24.00;99.90;;;;;;5075022;28;20177;-67
2023/07/22 10:10:37;;;;;;;2.40;2.20;;;24.10;99.90;;;;;;5075745;28;20181;-66
2023/07/22 10:13:04;;;;;;;2.38;1.92;;;24.20;99.90;;;;;;5061371;28;20177;-66
2023/07/22 10:15:34;;;;;;;2.72;2.20;;;24.30;99.90;;;;;;5075795;28;20395;-67
2023/07/22 10:18:03;;;;;;;2.45;2.25;;;24.40;99.90;;;;;;5055418;28;20193;-66
2023/07/22 10:20:36;;;;;;;2.10;1.90;;;24.50;99.90;;;;;;5075194;28;20192;-67
2023/07/22 10:23:07;;;;;;;2.63;2.10;;;24.50;99.90;;;;;;5074722;28;20196;-67
2023/07/22 10:25:33;;;;;;;2.25;2.05;;;24.50;99.90;;;;;;5072021;28;20200;-67
2023/07/22 10:28:01;;;;;;;2.00;1.80;;;24.60;99.90;;;;;;5072209;28;20188;-67
2023/07/22 10:30:27;;;;;;;2.25;2.05;;;24.60;99.90;;;;;;5075135;28;20176;-66
2023/07/22 10:32:53;;;;;;;1.95;1.75;;;24.60;99.90;;;;;;5072877;28;20198;-66
2023/07/22 10:35:31;;;;;;;2.60;2.00;;;24.60;99.90;;;;;;5075141;28;20204;-68
2023/07/22 10:38:10;;;;;;;2.35;2.15;;;24.60;99.90;;;;;;5081796;28;20278;-67
2023/07/22 10:40:49;;;;;;;2.25;1.90;;;24.70;99.90;;;;;;5074999;28;20259;-66
2023/07/22 10:43:19;;;;;;;2.13;1.90;;;24.80;99.90;;;;;;5074714;28;20230;-67
2023/07/22 10:45:55;;;;;;;2.05;1.83;;;24.90;99.90;;;;;;5075074;28;20181;-66
2023/07/22 10:48:23;;;;;;;1.75;1.60;;;25.00;99.90;;;;;;5069047;28;20200;-66
2023/07/22 10:50:54;;;;;;;2.33;1.70;;;25.10;99.90;;;;;;5075112;28;20547;-66
2023/07/22 10:53:31;;;;;;;2.42;1.35;;;25.20;99.90;;;;;;5068693;28;20181;-67
2023/07/22 10:56:17;;;;;;;1.75;1.50;;;25.30;99.90;;;;;;5074101;28;20200;-68
2023/07/22 10:58:48;;;;;;;1.70;1.60;;;25.50;99.90;;;;;;5074170;28;20230;-68
2023/07/22 11:01:28;;;;;;;1.52;1.10;;;25.70;99.90;;;;;;5074231;28;20287;-68
2023/07/22 11:04:18;;;;;;;1.42;1.30;;;25.80;99.90;;;;;;5074866;28;20176;-69
2023/07/22 11:06:43;;;;;;;1.60;1.48;;;25.90;99.90;;;;;;5070459;28;20183;-69
2023/07/22 11:09:28;;;;;;;1.50;1.20;;;26.10;99.90;;;;;;5074515;28;20271;-69
2023/07/22 11:12:13;;;;;;;1.38;1.27;;;26.20;99.90;;;;;;5083958;28;20177;-68
2023/07/22 11:14:50;;;;;;;2.33;1.40;;;26.40;99.90;;;;;;5074537;28;20215;-69
2023/07/22 11:17:19;;;;;;;1.67;1.33;;;26.60;99.90;;;;;;5070434;28;20199;-69
2023/07/22 11:19:45;;;;;;;1.40;1.30;;;26.60;99.90;;;;;;5074083;28;20206;-68
2023/07/22 11:22:13;;;;;;;3.25;1.30;;;26.50;99.90;;;;;;5075430;28;20177;-66
2023/07/22 11:24:39;;;;;;;1.73;1.50;;;26.50;99.90;;;;;;5063030;28;20189;-67
2023/07/22 11:27:08;;;;;;;1.50;1.40;;;26.60;99.90;;;;;;5066641;28;20234;-68
2023/07/22 11:29:34;;;;;;;1.90;1.38;;;26.60;99.90;;;;;;5074486;28;20177;-68
2023/07/22 11:32:01;;;;;;;1.40;1.30;;;26.60;99.90;;;;;;5078300;28;20168;-69
2023/07/22 11:34:27;;;;;;;1.40;1.30;;;26.50;99.90;;;;;;5054912;28;20173;-68
2023/07/22 11:36:56;;;;;;;1.55;1.45;;;26.60;99.90;;;;;;5068186;28;20194;-68
2023/07/22 11:39:32;;;;;;;2.05;1.30;;;26.70;99.50;;;;;;5074520;28;20258;-67
2023/07/22 11:42:01;;;;;;;1.63;1.45;;;26.70;98.20;;;;;;5073893;28;20168;-67
2023/07/22 11:44:27;;;;;;;1.60;1.50;;;26.70;98.80;;;;;;5074044;28;20191;-69
2023/07/22 11:47:07;;;;;;;1.30;1.17;;;26.60;97.40;;;;;;5074210;28;20321;-69
2023/07/22 11:49:36;;;;;;;2.10;1.30;;;26.60;98.50;;;;;;5066382;28;20192;-69
2023/07/22 11:52:07;;;;;;;1.55;1.33;;;26.60;97.70;;;;;;5073441;28;20211;-67
2023/07/22 11:54:37;;;;;;;3.15;1.27;;;26.60;96.30;;;;;;5074156;28;20196;-67
2023/07/22 11:57:29;;;;;;;1.67;1.40;;;26.60;95.50;;;;;;5060884;28;20257;-68
2023/07/22 11:59:58;;;;;;;1.58;1.38;;;26.60;94.00;;;;;;5058782;28;20219;-67
2023/07/22 12:02:26;;;;;;;1.90;1.50;;;26.60;96.70;;;;;;5073799;28;20267;-66
2023/07/22 12:05:02;;;;;;;1.50;1.40;;;26.60;97.40;;;;;;5073393;28;20431;-67
2023/07/22 12:07:32;;;;;;;1.95;1.50;;;26.60;85.40;;;;;;5090581;28;20204;-66
2023/07/22 12:10:03;;;;;;;1.75;1.60;;;26.60;93.00;;;;;;5069185;28;20181;-61
2023/07/22 12:12:45;;;;;;;2.22;1.60;;;26.60;92.00;;;;;;5073898;28;20222;-63
2023/07/22 12:15:24;;;;;;;1.52;1.42;;;26.60;90.30;;;;;;5065055;28;20191;-66
2023/07/22 12:17:55;;;;;;;2.65;1.77;;;26.60;94.10;;;;;;5077637;28;20208;-65
2023/07/22 12:20:29;;;;;;;2.63;2.40;;;26.60;91.20;;;;;;5084221;28;20176;-63
2023/07/22 12:22:56;;;;;;;2.60;2.40;;;26.60;91.20;;;;;;5077293;28;20172;-65
2023/07/22 12:25:22;;;;;;;1.67;1.55;;;26.70;93.40;;;;;;5077261;28;20204;-64
2023/07/22 12:27:48;;;;;;;1.70;1.50;;;26.80;93.70;;;;;;5070695;28;20190;-66
2023/07/22 12:30:17;;;;;;;1.67;1.45;;;26.80;94.30;;;;;;5076175;28;20288;-64
2023/07/22 12:32:45;;;;;;;1.58;1.48;;;26.80;92.50;;;;;;5077272;28;20173;-66
2023/07/22 12:35:10;;;;;;;1.90;1.70;;;26.80;93.70;;;;;;5072616;28;20424;-67
2023/07/22 12:37:36;;;;;;;3.10;1.80;;;26.90;92.70;;;;;;5065910;28;20200;-66
2023/07/22 12:40:08;;;;;;;2.17;1.85;;;26.90;90.90;;;;;;5077055;28;20215;-66
2023/07/22 12:42:37;;;;;;;1.92;1.50;;;26.90;88.40;;;;;;5077173;28;20181;-65
2023/07/22 12:45:07;;;;;;;2.00;1.80;;;26.90;90.20;;;;;;5076953;28;20220;-67
2023/07/22 12:50:07;;;;;;;2.17;1.80;;;26.80;89.70;;;;;;5074419;28;20483;-67
2023/07/22 12:52:33;;;;;;;2.08;1.88;;;26.90;90.70;;;;;;5076558;28;20176;-67
2023/07/22 12:55:01;;;;;;;2.17;1.95;;;26.90;90.60;;;;;;5093422;28;20187;-66